EmailTwitter


Observations de surface / Europe / LIRF (16242)

Régions: Québec | Canada | États-Unis | Europe | France | UK | Ailleurs
Station
Affichage
Infos & localisation pour LIRF (16242) | Aide pour décoder les METARs

Observations prises le 2018-07-17 à 13H20 UTC (LIRF)

Etat du ciel: quelques nuages.

Température: 28.0 Celsius

Point de rosée: 19.0 Celsius

Humidité relative: 58%

Indice Humidex: 35.

Vents: Ouest-nord-ouest à 31 km/h ou 17 noeuds.

Pression au niveau moyen de la mer: 101.00 kilopascals.

Visibilité horizontale: 6.21 milles terrestres ou 9.94 kilomètres.

Observation METAR:

LIRF 171320Z 29017KT 9999 FEW025 28/19 Q1010 NOSIG=